Forside
METAR-TAF:

METAR-TAF

Lufthavne :

Jeddah International Airport

Jeddah, Saudi-Arabien

Breddekreds: 21-42N, længdekreds: 039-11E, højde: 15 m

Aktuelle vejr

Denne rapport blev lavet for 45 minutter siden, kl. 02:00 UTC
Vind 5 kt fra nordnordøst
Temperatur 20°C
Fugtighed 43%
Tryk 1014 hPa
Sigt 10 km eller mere
ingen skyer under 1500m og ingen cumulonimbus

METAR: OEJN 210200Z 02005KT CAVOK 20/07 Q1014 NOSIG

Tid: 05:45 (02:45 UTC)

Vejrudsigter

Denne rapport blev lavet for 3 timer og 45 minutter siden, kl. 23:00 UTC
Foreløbig gælder fra 21 på 00 UTC til 22 på 06 UTC
Vind 8 kt fra nordnordøst
Sigt: 8000 m
ændring
fra 21 på 08 UTC til 21 på 10 UTC
Vind 14 kt fra nordvest

TAF: OEJN 202300Z 2100/2206 03008KT 8000 NSC BECMG 2108/2110 32014KT

Vejrobservationer og prognoser fra mere end 4000 lufthavne (METAR og TAF).

De gule og røde prikker repræsenterer de meteorologiske stationer.

Flyt musen over at se navnet på stationen.

Så klik over at se vejr observationer og prognoser.

At skifte det kort: Klik på de grønne knapper med et sort kors for at zoome ind; på den grønne knap med en bindestreg for at zoome ud; eller på de grønne pile for tilstødende kort.


METAR-TAF: